Home   Weather   USA   Perry   Past weeks
Flag for USA

Past Weather in Perry, Georgia, USA — Yesterday and Last 2 Weeks

Currently: 61 °F. Sunny. (Weather station: Houston County Airport, USA). See more current weather

Past Weather in Perry — Graph

°F

Perry Temperature Yesterday

Maximum temperature yesterday: 69 °F (at 2:15 pm)
Minimum temperature yesterday: 43 °F (at 6:55 am)
Average temperature yesterday: 56 °F

High & Low Weather Summary for the Past Weeks

 TemperatureHumidityPressure
High70 °F (Feb 23, 2:35 pm)100% (Feb 11, 8:35 am)30.37 "Hg (Feb 11, 8:35 am)
Low29 °F (Feb 20, 6:15 am)19% (Feb 19, 3:55 pm)29.63 "Hg (Feb 12, 5:55 pm)
Average53 °F63%30.04 "Hg
* Reported Feb 10 1:15 pm — Feb 25 1:15 pm, Perry. Weather by CustomWeather, © 2024

Note: Actual official high and low records may vary slightly from our data, if they occured in-between our weather recording intervals... More about our weather records

Perry Weather History for the Previous 24 Hours

Scroll right to see more
 ConditionsComfort  
Time TempWeatherWind HumidityBarometerVisibility
1:15 pm
Sun, Feb 25
58 °FSunny.6 mph24%30.18 "Hg10 mi
12:55 pm57 °FSunny.6 mph29%30.20 "Hg10 mi
12:15 pm56 °FSunny.No wind34%30.21 "Hg10 mi
11:55 am54 °FSunny.No wind34%30.22 "Hg10 mi
11:35 am53 °FSunny.5 mph34%30.22 "Hg10 mi
11:15 am52 °FSunny.3 mph37%30.22 "Hg10 mi
10:55 am51 °FSunny.No wind39%30.22 "Hg7 mi
10:35 am49 °FSunny.3 mph42%30.23 "Hg10 mi
10:15 am50 °FSunny.No wind45%30.24 "Hg10 mi
9:35 am47 °FSunny.3 mph50%30.23 "Hg10 mi
9:15 am45 °FSunny.6 mph53%30.23 "Hg10 mi
8:35 am42 °FSunny.3 mph63%30.22 "Hg10 mi
8:15 am37 °FSunny.No wind88%30.21 "Hg10 mi
7:55 am34 °FSunny.No wind91%30.20 "Hg10 mi
7:35 am33 °FSunny.No wind92%30.19 "Hg10 mi
7:15 am32 °FSunny.No wind90%30.18 "Hg10 mi
6:55 am32 °FClear.No wind88%30.17 "Hg10 mi
6:15 am31 °FClear.No wind92%30.16 "Hg10 mi
5:55 am33 °FClear.No wind84%30.16 "Hg10 mi
5:35 am34 °FClear.No wind82%30.15 "Hg10 mi
5:15 am34 °FClear.No wind86%30.14 "Hg10 mi
4:55 am35 °FClear.3 mph86%30.13 "Hg10 mi
4:35 am34 °FClear.No wind85%30.13 "Hg10 mi
4:15 am35 °FClear.3 mph87%30.13 "Hg10 mi
3:55 am37 °FClear.6 mph77%30.13 "Hg10 mi
3:35 am37 °FClear.No wind75%30.13 "Hg10 mi
3:15 am37 °FClear.No wind79%30.13 "Hg10 mi
2:55 am41 °FClear.3 mph66%30.13 "Hg10 mi
2:35 am40 °FClear.No wind65%30.12 "Hg10 mi
2:15 am43 °FClear.3 mph60%30.12 "Hg10 mi
1:55 am45 °FClear.3 mph53%30.12 "Hg10 mi
1:15 am46 °FClear.7 mph52%30.11 "Hg10 mi
12:55 am46 °FClear.8 mph54%30.10 "Hg10 mi
12:35 am46 °FClear.8 mph56%30.10 "Hg10 mi
12:15 am47 °FClear.6 mph54%30.09 "Hg10 mi
11:55 pm
Sat, Feb 24
48 °FClear.6 mph49%30.09 "Hg10 mi
11:35 pm49 °FClear.6 mph47%30.08 "Hg10 mi
11:15 pm48 °FClear.5 mph54%30.08 "Hg10 mi
10:55 pm48 °FClear.3 mph54%30.07 "Hg10 mi
10:35 pm50 °FClear.3 mph44%30.06 "Hg10 mi
10:15 pm51 °FClear.6 mph43%30.05 "Hg10 mi
9:35 pm55 °FClear.6 mph32%30.04 "Hg10 mi
9:15 pm56 °FClear.8 mph32%30.03 "Hg10 mi
8:35 pm57 °FClear.9 mph30%30.01 "Hg10 mi
7:55 pm59 °FClear.7 mph30%29.98 "Hg10 mi
6:35 pm63 °FClear.9 mph24%29.95 "Hg10 mi
6:15 pm64 °FSunny.12 mph23%29.93 "Hg10 mi
5:55 pm65 °FSunny.16 mph21%29.92 "Hg10 mi
5:35 pm66 °FSunny.9 mph21%29.91 "Hg10 mi
5:15 pm67 °FSunny.15 mph20%29.90 "Hg10 mi
4:55 pm67 °FSunny.17 mph19%29.89 "Hg10 mi
4:15 pm68 °FSunny.18 mph19%29.87 "Hg10 mi
3:55 pm69 °FSunny.20 mph20%29.87 "Hg10 mi
3:15 pm69 °FScattered clouds.17 mph22%29.85 "Hg10 mi
2:15 pm69 °FPartly sunny.16 mph22%29.85 "Hg10 mi
Weather by CustomWeather, © 2024

See weather overview